Terminal Aerodrome Forecast
Issued by NWS

Home | Current Version | Previous Version | Text Only | Print | Product List | Glossary On
Versions: 1 2 3 4 5 6 7 8 9 10 11 12 13 14 15 16 17 18 19 20 21 22 23 24 25
000
FTUS44 KOHX 302327
TAFCKV
TAF
KCKV 302327Z 0100/0124 16014G21KT P6SM FEW021 SCT060
     FM010100 18019G29KT P6SM OVC024
     FM010300 20017G26KT P6SM VCSH OVC024
     FM010900 21011G17KT P6SM SCT220
     FM012300 25016G26KT P6SM SCT060=

USA.gov is the U.S. government's official web portal to all federal, state and local government web resources and services.